sensor_id;sensor_type;location;lat;lon;timestamp;pressure;altitude;pressure_sealevel;temperature;humidity
41078;BME280;26823;42.662;23.352;2023-04-27T00:00:47;94465.69;;;8.18;54.65
41078;BME280;26823;42.662;23.352;2023-04-27T00:03:12;94467.78;;;8.57;54.14
41078;BME280;26823;42.662;23.352;2023-04-27T00:05:38;94458.94;;;8.26;52.46
41078;BME280;26823;42.662;23.352;2023-04-27T00:08:06;94479.41;;;8.37;53.26
41078;BME280;26823;42.662;23.352;2023-04-27T00:10:32;94469.22;;;8.03;53.31
41078;BME280;26823;42.662;23.352;2023-04-27T00:12:58;94456.28;;;7.95;53.83
41078;BME280;26823;42.662;23.352;2023-04-27T00:15:24;94481.84;;;8.23;54.20
41078;BME280;26823;42.662;23.352;2023-04-27T00:17:49;94467.06;;;7.90;53.29
41078;BME280;26823;42.662;23.352;2023-04-27T00:20:15;94481.59;;;8.20;53.55
41078;BME280;26823;42.662;23.352;2023-04-27T00:22:41;94476.72;;;8.32;52.75
41078;BME280;26823;42.662;23.352;2023-04-27T00:25:07;94485.13;;;7.94;53.36
41078;BME280;26823;42.662;23.352;2023-04-27T00:27:32;94447.41;;;7.68;54.86
41078;BME280;26823;42.662;23.352;2023-04-27T00:29:57;94494.78;;;7.75;54.29
41078;BME280;26823;42.662;23.352;2023-04-27T00:32:23;94485.66;;;7.65;54.02
41078;BME280;26823;42.662;23.352;2023-04-27T00:34:48;94489.41;;;7.70;55.69
41078;BME280;26823;42.662;23.352;2023-04-27T00:37:14;94451.44;;;7.40;54.57
41078;BME280;26823;42.662;23.352;2023-04-27T00:39:39;94481.88;;;7.82;54.63
41078;BME280;26823;42.662;23.352;2023-04-27T00:42:05;94467.59;;;7.61;54.70
41078;BME280;26823;42.662;23.352;2023-04-27T00:44:35;94492.66;;;7.61;54.52
41078;BME280;26823;42.662;23.352;2023-04-27T00:47:01;94478.63;;;7.49;54.28
41078;BME280;26823;42.662;23.352;2023-04-27T00:49:26;94477.28;;;7.41;54.49
41078;BME280;26823;42.662;23.352;2023-04-27T00:51:52;94492.25;;;7.06;56.46
41078;BME280;26823;42.662;23.352;2023-04-27T00:54:19;94485.50;;;7.04;57.70
41078;BME280;26823;42.662;23.352;2023-04-27T00:56:49;94482.03;;;7.08;57.66
41078;BME280;26823;42.662;23.352;2023-04-27T00:59:16;94486.16;;;7.42;55.83
41078;BME280;26823;42.662;23.352;2023-04-27T01:01:41;94484.50;;;7.25;56.37
41078;BME280;26823;42.662;23.352;2023-04-27T01:04:07;94499.53;;;7.11;56.01
41078;BME280;26823;42.662;23.352;2023-04-27T01:06:32;94492.25;;;7.06;55.73
41078;BME280;26823;42.662;23.352;2023-04-27T01:08:58;94492.81;;;7.08;56.01
41078;BME280;26823;42.662;23.352;2023-04-27T01:11:23;94491.16;;;7.02;55.80
41078;BME280;26823;42.662;23.352;2023-04-27T01:13:49;94512.72;;;7.12;56.54
41078;BME280;26823;42.662;23.352;2023-04-27T01:16:18;94499.19;;;6.87;56.54
41078;BME280;26823;42.662;23.352;2023-04-27T01:18:43;94499.50;;;7.00;56.32
41078;BME280;26823;42.662;23.352;2023-04-27T01:21:09;94520.44;;;6.93;56.99
41078;BME280;26823;42.662;23.352;2023-04-27T01:23:35;94504.00;;;6.90;57.63
41078;BME280;26823;42.662;23.352;2023-04-27T01:26:00;94511.53;;;6.88;56.36
41078;BME280;26823;42.662;23.352;2023-04-27T01:28:26;94512.03;;;6.74;56.60
41078;BME280;26823;42.662;23.352;2023-04-27T01:30:51;94506.38;;;6.76;57.16
41078;BME280;26823;42.662;23.352;2023-04-27T01:33:17;94510.63;;;6.66;57.19
41078;BME280;26823;42.662;23.352;2023-04-27T01:35:42;94511.72;;;6.71;57.68
41078;BME280;26823;42.662;23.352;2023-04-27T01:38:08;94507.09;;;6.61;57.88
41078;BME280;26823;42.662;23.352;2023-04-27T01:40:33;94504.16;;;6.67;56.88
41078;BME280;26823;42.662;23.352;2023-04-27T01:42:59;94510.34;;;6.63;57.30
41078;BME280;26823;42.662;23.352;2023-04-27T01:45:25;94507.94;;;6.66;57.66
41078;BME280;26823;42.662;23.352;2023-04-27T01:47:51;94487.97;;;6.52;57.76
41078;BME280;26823;42.662;23.352;2023-04-27T01:50:17;94517.31;;;6.59;57.53
41078;BME280;26823;42.662;23.352;2023-04-27T01:52:42;94506.84;;;6.67;57.41
41078;BME280;26823;42.662;23.352;2023-04-27T01:55:07;94516.34;;;6.75;56.86
41078;BME280;26823;42.662;23.352;2023-04-27T01:57:33;94525.66;;;6.67;57.52
41078;BME280;26823;42.662;23.352;2023-04-27T01:59:58;94526.75;;;6.61;57.28
41078;BME280;26823;42.662;23.352;2023-04-27T02:02:24;94512.72;;;6.54;57.69
41078;BME280;26823;42.662;23.352;2023-04-27T02:04:49;94523.53;;;6.64;57.29
41078;BME280;26823;42.662;23.352;2023-04-27T02:07:15;94520.81;;;6.59;57.73
41078;BME280;26823;42.662;23.352;2023-04-27T02:09:40;94517.56;;;6.57;57.04
41078;BME280;26823;42.662;23.352;2023-04-27T02:12:05;94520.97;;;6.42;57.07
41078;BME280;26823;42.662;23.352;2023-04-27T02:14:31;94521.69;;;6.27;57.41
41078;BME280;26823;42.662;23.352;2023-04-27T02:16:56;94526.31;;;6.37;57.58
41078;BME280;26823;42.662;23.352;2023-04-27T02:19:22;94522.25;;;6.34;57.87
41078;BME280;26823;42.662;23.352;2023-04-27T02:21:47;94508.25;;;6.27;58.19
41078;BME280;26823;42.662;23.352;2023-04-27T02:24:12;94521.75;;;6.38;57.57
41078;BME280;26823;42.662;23.352;2023-04-27T02:26:38;94520.69;;;6.39;57.63
41078;BME280;26823;42.662;23.352;2023-04-27T02:29:03;94525.53;;;6.42;57.72
41078;BME280;26823;42.662;23.352;2023-04-27T02:31:29;94517.47;;;6.42;56.86
41078;BME280;26823;42.662;23.352;2023-04-27T02:33:54;94529.00;;;6.37;57.16
41078;BME280;26823;42.662;23.352;2023-04-27T02:36:20;94545.41;;;6.41;57.46
41078;BME280;26823;42.662;23.352;2023-04-27T02:38:45;94525.53;;;6.42;57.48
41078;BME280;26823;42.662;23.352;2023-04-27T02:41:11;94530.34;;;6.40;57.78
41078;BME280;26823;42.662;23.352;2023-04-27T02:43:36;94516.34;;;6.32;56.82
41078;BME280;26823;42.662;23.352;2023-04-27T02:46:03;94515.56;;;6.37;57.37
41078;BME280;26823;42.662;23.352;2023-04-27T02:48:29;94545.41;;;6.41;57.68
41078;BME280;26823;42.662;23.352;2023-04-27T02:50:55;94517.69;;;6.30;57.26
41078;BME280;26823;42.662;23.352;2023-04-27T02:53:21;94523.16;;;6.45;56.48
41078;BME280;26823;42.662;23.352;2023-04-27T02:55:47;94543.59;;;6.51;56.39
41078;BME280;26823;42.662;23.352;2023-04-27T02:58:14;94537.16;;;6.52;56.25
41078;BME280;26823;42.662;23.352;2023-04-27T03:00:39;94522.06;;;6.41;56.95
41078;BME280;26823;42.662;23.352;2023-04-27T03:03:06;94537.94;;;6.48;57.14
41078;BME280;26823;42.662;23.352;2023-04-27T03:05:32;94531.69;;;6.37;55.77
41078;BME280;26823;42.662;23.352;2023-04-27T03:07:58;94544.03;;;6.38;57.22
41078;BME280;26823;42.662;23.352;2023-04-27T03:10:24;94546.94;;;6.26;56.56
41078;BME280;26823;42.662;23.352;2023-04-27T03:12:49;94546.38;;;6.24;58.10
41078;BME280;26823;42.662;23.352;2023-04-27T03:15:14;94524.09;;;6.24;56.30
41078;BME280;26823;42.662;23.352;2023-04-27T03:17:40;94528.09;;;6.21;56.07
41078;BME280;26823;42.662;23.352;2023-04-27T03:20:05;94550.22;;;6.33;56.98
41078;BME280;26823;42.662;23.352;2023-04-27T03:22:34;94557.06;;;6.19;56.98
41078;BME280;26823;42.662;23.352;2023-04-27T03:25:00;94548.75;;;6.20;57.78
41078;BME280;26823;42.662;23.352;2023-04-27T03:27:25;94557.78;;;6.42;56.99
41078;BME280;26823;42.662;23.352;2023-04-27T03:29:51;94557.44;;;6.33;55.24
41078;BME280;26823;42.662;23.352;2023-04-27T03:32:20;94539.81;;;6.47;58.61
41078;BME280;26823;42.662;23.352;2023-04-27T03:34:45;94567.84;;;6.62;56.32
41078;BME280;26823;42.662;23.352;2023-04-27T03:37:17;94550.63;;;6.20;56.39
41078;BME280;26823;42.662;23.352;2023-04-27T03:39:43;94576.88;;;6.45;56.28
41078;BME280;26823;42.662;23.352;2023-04-27T03:42:09;94560.97;;;6.33;56.60
41078;BME280;26823;42.662;23.352;2023-04-27T03:44:34;94563.31;;;6.67;55.99
41078;BME280;26823;42.662;23.352;2023-04-27T03:47:00;94578.28;;;6.53;55.30
41078;BME280;26823;42.662;23.352;2023-04-27T03:49:26;94574.34;;;6.28;56.31
41078;BME280;26823;42.662;23.352;2023-04-27T03:51:51;94570.66;;;6.02;56.69
41078;BME280;26823;42.662;23.352;2023-04-27T03:54:17;94574.38;;;6.33;55.70
41078;BME280;26823;42.662;23.352;2023-04-27T03:56:42;94585.22;;;6.44;55.76
41078;BME280;26823;42.662;23.352;2023-04-27T03:59:12;94586.81;;;6.45;56.52
41078;BME280;26823;42.662;23.352;2023-04-27T04:01:37;94572.50;;;6.34;55.03
41078;BME280;26823;42.662;23.352;2023-04-27T04:04:04;94582.72;;;6.37;55.63
41078;BME280;26823;42.662;23.352;2023-04-27T04:06:29;94592.00;;;6.57;55.20
41078;BME280;26823;42.662;23.352;2023-04-27T04:08:55;94598.84;;;6.37;55.78
41078;BME280;26823;42.662;23.352;2023-04-27T04:11:21;94598.97;;;6.52;57.93
41078;BME280;26823;42.662;23.352;2023-04-27T04:13:46;94607.06;;;6.58;54.33
41078;BME280;26823;42.662;23.352;2023-04-27T04:16:12;94608.75;;;6.31;55.39
41078;BME280;26823;42.662;23.352;2023-04-27T04:18:38;94607.00;;;7.54;52.99
41078;BME280;26823;42.662;23.352;2023-04-27T04:21:03;94616.16;;;6.94;53.11
41078;BME280;26823;42.662;23.352;2023-04-27T04:23:28;94594.78;;;6.72;53.52
41078;BME280;26823;42.662;23.352;2023-04-27T04:25:54;94615.28;;;6.46;54.67
41078;BME280;26823;42.662;23.352;2023-04-27T04:28:23;94615.06;;;6.47;54.83
41078;BME280;26823;42.662;23.352;2023-04-27T04:30:50;94616.38;;;6.45;56.17
41078;BME280;26823;42.662;23.352;2023-04-27T04:33:16;94627.03;;;6.34;55.40
41078;BME280;26823;42.662;23.352;2023-04-27T04:35:41;94613.31;;;6.31;55.70
41078;BME280;26823;42.662;23.352;2023-04-27T04:38:07;94634.50;;;6.65;56.10
41078;BME280;26823;42.662;23.352;2023-04-27T04:40:39;94634.28;;;6.66;55.56
41078;BME280;26823;42.662;23.352;2023-04-27T04:43:06;94636.97;;;6.66;55.06
41078;BME280;26823;42.662;23.352;2023-04-27T04:45:31;94633.78;;;6.75;54.72
41078;BME280;26823;42.662;23.352;2023-04-27T04:47:57;94633.16;;;6.62;54.71
41078;BME280;26823;42.662;23.352;2023-04-27T04:50:22;94633.34;;;6.50;54.65
41078;BME280;26823;42.662;23.352;2023-04-27T04:52:48;94645.13;;;6.82;55.22
41078;BME280;26823;42.662;23.352;2023-04-27T04:55:14;94644.06;;;7.31;53.94
41078;BME280;26823;42.662;23.352;2023-04-27T04:57:40;94650.34;;;7.62;52.15
41078;BME280;26823;42.662;23.352;2023-04-27T05:00:05;94649.59;;;7.72;51.59
41078;BME280;26823;42.662;23.352;2023-04-27T05:02:36;94651.63;;;8.33;50.67
41078;BME280;26823;42.662;23.352;2023-04-27T05:05:01;94657.81;;;8.29;48.77
41078;BME280;26823;42.662;23.352;2023-04-27T05:07:26;94678.13;;;7.73;49.93
41078;BME280;26823;42.662;23.352;2023-04-27T05:09:58;94661.41;;;7.66;52.13
41078;BME280;26823;42.662;23.352;2023-04-27T05:12:23;94624.66;;;9.01;49.97
41078;BME280;26823;42.662;23.352;2023-04-27T05:14:51;94674.53;;;8.93;49.21
41078;BME280;26823;42.662;23.352;2023-04-27T05:17:16;94677.81;;;8.59;48.61
41078;BME280;26823;42.662;23.352;2023-04-27T05:19:42;94671.53;;;8.17;49.72
41078;BME280;26823;42.662;23.352;2023-04-27T05:22:08;94690.34;;;8.12;49.51
41078;BME280;26823;42.662;23.352;2023-04-27T05:24:33;94676.84;;;7.86;49.84
41078;BME280;26823;42.662;23.352;2023-04-27T05:26:59;94659.22;;;7.53;51.15
41078;BME280;26823;42.662;23.352;2023-04-27T05:29:24;94684.88;;;7.76;51.63
41078;BME280;26823;42.662;23.352;2023-04-27T05:31:50;94678.13;;;7.68;50.99
41078;BME280;26823;42.662;23.352;2023-04-27T05:34:15;94678.09;;;7.63;52.23
41078;BME280;26823;42.662;23.352;2023-04-27T05:36:41;94678.56;;;7.49;52.00
41078;BME280;26823;42.662;23.352;2023-04-27T05:39:06;94677.72;;;7.39;52.22
41078;BME280;26823;42.662;23.352;2023-04-27T05:41:32;94660.00;;;7.48;54.82
41078;BME280;26823;42.662;23.352;2023-04-27T05:43:57;94683.75;;;7.61;51.74
41078;BME280;26823;42.662;23.352;2023-04-27T05:46:22;94699.31;;;7.49;52.11
41078;BME280;26823;42.662;23.352;2023-04-27T05:48:48;94695.22;;;7.41;52.79
41078;BME280;26823;42.662;23.352;2023-04-27T05:51:13;94685.63;;;7.61;52.00
41078;BME280;26823;42.662;23.352;2023-04-27T05:53:39;94677.19;;;7.42;52.06
41078;BME280;26823;42.662;23.352;2023-04-27T05:56:04;94693.38;;;7.47;52.00
41078;BME280;26823;42.662;23.352;2023-04-27T05:58:33;94689.66;;;7.58;52.78
41078;BME280;26823;42.662;23.352;2023-04-27T06:00:59;94702.94;;;7.75;51.54
41078;BME280;26823;42.662;23.352;2023-04-27T06:03:25;94686.94;;;7.53;51.70
41078;BME280;26823;42.662;23.352;2023-04-27T06:05:57;94685.81;;;7.39;52.29
41078;BME280;26823;42.662;23.352;2023-04-27T06:08:23;94651.97;;;7.58;51.41
41078;BME280;26823;42.662;23.352;2023-04-27T06:10:52;94691.38;;;7.90;53.56
41078;BME280;26823;42.662;23.352;2023-04-27T06:13:18;94678.81;;;8.22;52.17
41078;BME280;26823;42.662;23.352;2023-04-27T06:15:43;94694.78;;;8.85;49.29
41078;BME280;26823;42.662;23.352;2023-04-27T06:18:09;94702.09;;;8.74;49.31
41078;BME280;26823;42.662;23.352;2023-04-27T06:20:34;94695.41;;;7.82;51.90
41078;BME280;26823;42.662;23.352;2023-04-27T06:23:00;94697.06;;;8.04;51.60
41078;BME280;26823;42.662;23.352;2023-04-27T06:25:26;94694.97;;;8.27;54.11
41078;BME280;26823;42.662;23.352;2023-04-27T06:27:53;94683.19;;;8.48;50.08
41078;BME280;26823;42.662;23.352;2023-04-27T06:30:18;94656.97;;;8.13;50.72
41078;BME280;26823;42.662;23.352;2023-04-27T06:32:44;94683.13;;;8.38;51.36
41078;BME280;26823;42.662;23.352;2023-04-27T06:35:10;94683.72;;;8.66;53.27
41078;BME280;26823;42.662;23.352;2023-04-27T06:37:35;94694.50;;;8.51;49.76
41078;BME280;26823;42.662;23.352;2023-04-27T06:40:01;94685.06;;;8.48;50.52
41078;BME280;26823;42.662;23.352;2023-04-27T06:42:27;94672.16;;;8.60;50.24
41078;BME280;26823;42.662;23.352;2023-04-27T06:44:53;94682.66;;;8.72;49.61
41078;BME280;26823;42.662;23.352;2023-04-27T06:47:20;94678.59;;;8.80;49.49
41078;BME280;26823;42.662;23.352;2023-04-27T06:49:46;94682.66;;;9.08;48.52
41078;BME280;26823;42.662;23.352;2023-04-27T06:52:12;94688.78;;;9.35;48.21
41078;BME280;26823;42.662;23.352;2023-04-27T06:54:40;94687.13;;;9.54;47.36
41078;BME280;26823;42.662;23.352;2023-04-27T06:57:06;94676.59;;;9.53;47.20
41078;BME280;26823;42.662;23.352;2023-04-27T06:59:31;94678.91;;;9.80;46.69
41078;BME280;26823;42.662;23.352;2023-04-27T07:01:57;94676.84;;;10.17;47.22
41078;BME280;26823;42.662;23.352;2023-04-27T07:04:22;94683.22;;;10.41;45.62
41078;BME280;26823;42.662;23.352;2023-04-27T07:06:48;94672.69;;;10.35;45.24
41078;BME280;26823;42.662;23.352;2023-04-27T07:09:13;94672.78;;;10.64;44.94
41078;BME280;26823;42.662;23.352;2023-04-27T07:11:39;94640.25;;;10.74;43.85
41078;BME280;26823;42.662;23.352;2023-04-27T07:14:04;94663.97;;;11.17;42.46
41078;BME280;26823;42.662;23.352;2023-04-27T07:16:30;94671.50;;;11.45;43.11
41078;BME280;26823;42.662;23.352;2023-04-27T07:18:55;94663.75;;;11.62;45.57
41078;BME280;26823;42.662;23.352;2023-04-27T07:21:23;94684.19;;;11.49;41.96
41078;BME280;26823;42.662;23.352;2023-04-27T07:23:49;94652.50;;;10.96;44.06
41078;BME280;26823;42.662;23.352;2023-04-27T07:26:14;94652.78;;;10.95;42.49
41078;BME280;26823;42.662;23.352;2023-04-27T07:28:40;94660.38;;;11.22;42.64
41078;BME280;26823;42.662;23.352;2023-04-27T07:31:05;94670.78;;;11.39;42.90
41078;BME280;26823;42.662;23.352;2023-04-27T07:33:32;94666.97;;;11.64;42.84
41078;BME280;26823;42.662;23.352;2023-04-27T07:35:57;94673.25;;;11.59;43.25
41078;BME280;26823;42.662;23.352;2023-04-27T07:38:23;94671.09;;;11.03;41.89
41078;BME280;26823;42.662;23.352;2023-04-27T07:40:49;94660.97;;;10.89;42.96
41078;BME280;26823;42.662;23.352;2023-04-27T07:43:15;94667.91;;;10.96;42.34
41078;BME280;26823;42.662;23.352;2023-04-27T07:45:42;94669.75;;;11.30;41.17
41078;BME280;26823;42.662;23.352;2023-04-27T07:48:08;94671.56;;;11.64;43.99
41078;BME280;26823;42.662;23.352;2023-04-27T07:50:36;94668.31;;;11.42;39.35
41078;BME280;26823;42.662;23.352;2023-04-27T07:53:02;94673.53;;;11.34;40.05
41078;BME280;26823;42.662;23.352;2023-04-27T07:55:27;94669.28;;;10.93;43.25
41078;BME280;26823;42.662;23.352;2023-04-27T07:57:54;94675.72;;;11.02;40.85
41078;BME280;26823;42.662;23.352;2023-04-27T08:00:21;94658.94;;;11.30;40.64
41078;BME280;26823;42.662;23.352;2023-04-27T08:02:47;94651.41;;;12.18;39.37
41078;BME280;26823;42.662;23.352;2023-04-27T08:05:12;94661.53;;;12.13;38.96
41078;BME280;26823;42.662;23.352;2023-04-27T08:07:38;94662.41;;;12.46;39.18
41078;BME280;26823;42.662;23.352;2023-04-27T08:10:04;94658.44;;;12.57;38.69
41078;BME280;26823;42.662;23.352;2023-04-27T08:12:31;94687.72;;;12.94;37.33
41078;BME280;26823;42.662;23.352;2023-04-27T08:14:57;94666.75;;;12.80;37.22
41078;BME280;26823;42.662;23.352;2023-04-27T08:17:22;94658.66;;;13.27;38.71
41078;BME280;26823;42.662;23.352;2023-04-27T08:19:48;94666.69;;;12.85;37.52
41078;BME280;26823;42.662;23.352;2023-04-27T08:22:13;94661.53;;;12.51;38.47
41078;BME280;26823;42.662;23.352;2023-04-27T08:24:39;94656.94;;;13.17;37.90
41078;BME280;26823;42.662;23.352;2023-04-27T08:27:07;94658.91;;;13.45;35.54
41078;BME280;26823;42.662;23.352;2023-04-27T08:29:33;94668.41;;;14.40;34.80
41078;BME280;26823;42.662;23.352;2023-04-27T08:32:00;94658.34;;;13.76;35.67
41078;BME280;26823;42.662;23.352;2023-04-27T08:34:27;94642.34;;;13.27;37.12
41078;BME280;26823;42.662;23.352;2023-04-27T08:36:52;94663.72;;;13.34;37.47
41078;BME280;26823;42.662;23.352;2023-04-27T08:39:22;94666.75;;;13.46;36.83
41078;BME280;26823;42.662;23.352;2023-04-27T08:41:47;94661.13;;;13.43;35.31
41078;BME280;26823;42.662;23.352;2023-04-27T08:44:13;94634.00;;;13.24;38.28
41078;BME280;26823;42.662;23.352;2023-04-27T08:46:40;94637.06;;;13.50;36.83
41078;BME280;26823;42.662;23.352;2023-04-27T08:49:05;94613.56;;;13.26;35.73
41078;BME280;26823;42.662;23.352;2023-04-27T08:51:39;94625.75;;;12.30;37.30
41078;BME280;26823;42.662;23.352;2023-04-27T08:54:08;94665.59;;;12.86;38.37
41078;BME280;26823;42.662;23.352;2023-04-27T08:56:33;94676.41;;;13.52;42.72
41078;BME280;26823;42.662;23.352;2023-04-27T08:58:59;94648.28;;;13.15;39.08
41078;BME280;26823;42.662;23.352;2023-04-27T09:01:26;94668.03;;;13.02;39.28
41078;BME280;26823;42.662;23.352;2023-04-27T09:03:56;94671.59;;;12.50;37.72
41078;BME280;26823;42.662;23.352;2023-04-27T09:06:32;94667.31;;;12.25;38.99
41078;BME280;26823;42.662;23.352;2023-04-27T09:08:58;94668.06;;;12.31;39.48
41078;BME280;26823;42.662;23.352;2023-04-27T09:11:34;94657.41;;;12.15;38.92
41078;BME280;26823;42.662;23.352;2023-04-27T09:14:20;94655.88;;;12.09;40.86
41078;BME280;26823;42.662;23.352;2023-04-27T09:16:55;94657.22;;;13.16;39.83
41078;BME280;26823;42.662;23.352;2023-04-27T09:19:25;94658.09;;;13.44;37.55
41078;BME280;26823;42.662;23.352;2023-04-27T09:22:10;94639.00;;;13.02;37.75
41078;BME280;26823;42.662;23.352;2023-04-27T09:24:36;94651.88;;;13.85;36.33
41078;BME280;26823;42.662;23.352;2023-04-27T09:27:02;94650.00;;;13.25;36.80
41078;BME280;26823;42.662;23.352;2023-04-27T09:29:38;94641.16;;;13.33;36.55
41078;BME280;26823;42.662;23.352;2023-04-27T09:32:16;94657.31;;;13.11;37.50
41078;BME280;26823;42.662;23.352;2023-04-27T09:34:44;94643.47;;;12.93;38.10
41078;BME280;26823;42.662;23.352;2023-04-27T09:37:10;94645.00;;;12.66;38.69
41078;BME280;26823;42.662;23.352;2023-04-27T09:39:39;94633.84;;;12.68;39.31
41078;BME280;26823;42.662;23.352;2023-04-27T09:42:05;94630.50;;;12.90;38.52
41078;BME280;26823;42.662;23.352;2023-04-27T09:44:33;94640.56;;;12.18;38.94
41078;BME280;26823;42.662;23.352;2023-04-27T09:47:00;94638.44;;;11.96;39.79
41078;BME280;26823;42.662;23.352;2023-04-27T09:49:26;94611.19;;;13.80;40.97
41078;BME280;26823;42.662;23.352;2023-04-27T09:51:55;94626.91;;;14.34;36.60
41078;BME280;26823;42.662;23.352;2023-04-27T09:54:26;94597.69;;;14.62;35.08
41078;BME280;26823;42.662;23.352;2023-04-27T09:57:16;94629.66;;;14.57;36.77
41078;BME280;26823;42.662;23.352;2023-04-27T10:02:43;94622.34;;;14.07;35.34
41078;BME280;26823;42.662;23.352;2023-04-27T10:07:45;94606.56;;;14.31;33.93
41078;BME280;26823;42.662;23.352;2023-04-27T10:10:25;94602.13;;;13.85;35.37
41078;BME280;26823;42.662;23.352;2023-04-27T10:13:00;94616.94;;;13.51;35.58
41078;BME280;26823;42.662;23.352;2023-04-27T10:15:27;94617.25;;;12.88;36.09
41078;BME280;26823;42.662;23.352;2023-04-27T10:17:54;94584.91;;;12.59;36.84
41078;BME280;26823;42.662;23.352;2023-04-27T10:20:35;94619.34;;;12.59;37.02
41078;BME280;26823;42.662;23.352;2023-04-27T10:23:03;94609.66;;;12.71;37.90
41078;BME280;26823;42.662;23.352;2023-04-27T10:25:57;94559.22;;;11.99;37.20
41078;BME280;26823;42.662;23.352;2023-04-27T10:28:37;94546.13;;;12.06;36.90
41078;BME280;26823;42.662;23.352;2023-04-27T10:31:16;94585.34;;;12.80;37.06
41078;BME280;26823;42.662;23.352;2023-04-27T10:34:26;94595.75;;;12.59;36.76
41078;BME280;26823;42.662;23.352;2023-04-27T10:37:24;94572.44;;;13.05;40.90
41078;BME280;26823;42.662;23.352;2023-04-27T10:40:10;94592.97;;;13.11;34.23
41078;BME280;26823;42.662;23.352;2023-04-27T10:42:52;94555.81;;;12.79;34.89
41078;BME280;26823;42.662;23.352;2023-04-27T10:45:27;94589.22;;;12.60;35.76
41078;BME280;26823;42.662;23.352;2023-04-27T10:47:57;94605.41;;;12.65;36.41
41078;BME280;26823;42.662;23.352;2023-04-27T10:50:24;94615.47;;;12.65;35.59
41078;BME280;26823;42.662;23.352;2023-04-27T10:53:02;94609.78;;;13.69;34.49
41078;BME280;26823;42.662;23.352;2023-04-27T10:55:53;94573.84;;;13.02;34.53
41078;BME280;26823;42.662;23.352;2023-04-27T10:58:24;94585.03;;;12.82;36.30
41078;BME280;26823;42.662;23.352;2023-04-27T11:00:52;94569.06;;;12.47;35.61
41078;BME280;26823;42.662;23.352;2023-04-27T11:03:30;94592.22;;;12.92;35.17
41078;BME280;26823;42.662;23.352;2023-04-27T11:09:06;94568.75;;;13.29;34.78
41078;BME280;26823;42.662;23.352;2023-04-27T11:11:31;94590.19;;;13.58;33.26
41078;BME280;26823;42.662;23.352;2023-04-27T11:13:56;94595.63;;;13.58;33.57
41078;BME280;26823;42.662;23.352;2023-04-27T11:16:22;94582.47;;;13.04;33.67
41078;BME280;26823;42.662;23.352;2023-04-27T11:18:48;94593.25;;;13.24;34.04
41078;BME280;26823;42.662;23.352;2023-04-27T11:21:15;94599.78;;;12.95;34.97
41078;BME280;26823;42.662;23.352;2023-04-27T11:23:42;94612.66;;;14.14;35.70
41078;BME280;26823;42.662;23.352;2023-04-27T11:26:16;94613.88;;;14.08;37.07
41078;BME280;26823;42.662;23.352;2023-04-27T11:28:57;94606.38;;;13.63;33.24
41078;BME280;26823;42.662;23.352;2023-04-27T11:31:24;94602.06;;;13.62;36.34
41078;BME280;26823;42.662;23.352;2023-04-27T11:33:50;94600.81;;;14.33;39.49
41078;BME280;26823;42.662;23.352;2023-04-27T11:36:20;94612.06;;;13.06;34.51
41078;BME280;26823;42.662;23.352;2023-04-27T11:38:46;94620.06;;;13.86;35.91
41078;BME280;26823;42.662;23.352;2023-04-27T11:41:12;94611.94;;;14.23;33.75
41078;BME280;26823;42.662;23.352;2023-04-27T11:43:41;94613.19;;;14.02;34.03
41078;BME280;26823;42.662;23.352;2023-04-27T11:46:07;94607.75;;;14.02;33.84
41078;BME280;26823;42.662;23.352;2023-04-27T11:48:36;94624.00;;;13.80;33.80
41078;BME280;26823;42.662;23.352;2023-04-27T11:51:02;94628.00;;;13.96;34.97
41078;BME280;26823;42.662;23.352;2023-04-27T11:53:36;94601.13;;;14.54;32.79
41078;BME280;26823;42.662;23.352;2023-04-27T11:56:03;94623.66;;;14.09;33.43
41078;BME280;26823;42.662;23.352;2023-04-27T11:58:35;94628.47;;;14.12;33.31
41078;BME280;26823;42.662;23.352;2023-04-27T12:01:02;94610.69;;;13.92;33.13
41078;BME280;26823;42.662;23.352;2023-04-27T12:03:28;94626.19;;;13.92;34.56
41078;BME280;26823;42.662;23.352;2023-04-27T12:05:55;94625.75;;;13.98;34.05
41078;BME280;26823;42.662;23.352;2023-04-27T12:08:24;94618.97;;;13.45;34.74
41078;BME280;26823;42.662;23.352;2023-04-27T12:10:50;94636.38;;;13.72;34.33
41078;BME280;26823;42.662;23.352;2023-04-27T12:13:15;94625.81;;;13.70;34.27
41078;BME280;26823;42.662;23.352;2023-04-27T12:15:41;94626.41;;;13.40;35.08
41078;BME280;26823;42.662;23.352;2023-04-27T12:18:08;94637.34;;;13.34;34.14
41078;BME280;26823;42.662;23.352;2023-04-27T12:20:34;94609.22;;;12.97;35.06
41078;BME280;26823;42.662;23.352;2023-04-27T12:22:59;94638.56;;;12.95;35.28
41078;BME280;26823;42.662;23.352;2023-04-27T12:25:25;94618.78;;;12.95;35.16
41078;BME280;26823;42.662;23.352;2023-04-27T12:27:50;94626.78;;;12.86;34.72
41078;BME280;26823;42.662;23.352;2023-04-27T12:30:16;94635.16;;;12.70;37.05
41078;BME280;26823;42.662;23.352;2023-04-27T12:32:42;94632.44;;;12.70;36.20
41078;BME280;26823;42.662;23.352;2023-04-27T12:35:08;94630.75;;;13.08;35.60
41078;BME280;26823;42.662;23.352;2023-04-27T12:37:35;94618.75;;;12.81;36.72
41078;BME280;26823;42.662;23.352;2023-04-27T12:40:01;94635.22;;;13.31;39.56
41078;BME280;26823;42.662;23.352;2023-04-27T12:42:30;94627.56;;;13.33;35.30
41078;BME280;26823;42.662;23.352;2023-04-27T12:44:55;94635.56;;;13.85;35.97
41078;BME280;26823;42.662;23.352;2023-04-27T12:47:21;94628.69;;;14.02;38.76
41078;BME280;26823;42.662;23.352;2023-04-27T12:49:47;94644.63;;;13.39;34.18
41078;BME280;26823;42.662;23.352;2023-04-27T12:52:12;94631.44;;;12.66;35.74
41078;BME280;26823;42.662;23.352;2023-04-27T12:54:38;94630.94;;;12.64;38.17
41078;BME280;26823;42.662;23.352;2023-04-27T12:57:04;94641.59;;;12.94;36.56
41078;BME280;26823;42.662;23.352;2023-04-27T12:59:33;94642.34;;;12.80;36.62
41078;BME280;26823;42.662;23.352;2023-04-27T13:02:00;94638.78;;;12.66;35.98
41078;BME280;26823;42.662;23.352;2023-04-27T13:04:26;94635.41;;;13.35;35.82